Have a Safe July 4th! 

Flight Track Log - Related Links

Times and Time Zones

All times are in EDT time to prevent confusion due to time zone crossing. See the CES5320 flight status page for this flight to view local times or setup timezone preferences in your user account.

Time Position Orientation Groundspeed Altitude Reporting Facility
EDT Latitude Longitude Course Direction KTS MPH feet Rate Location/Type
Tue 08:07:00 AM 23.3597 114.3927 36° Northeast  Level Estimated
Tue 08:08:00 AM 23.4496 114.4656 37° Northeast  Level Estimated
Tue 08:09:00 AM 23.5394 114.5387 37° Northeast  Level Estimated
Tue 08:10:00 AM 23.6292 114.6119 37° Northeast  Level Estimated
Tue 08:11:00 AM 23.7190 114.6852 37° Northeast  Level Estimated
Tue 08:12:00 AM 23.8088 114.7585 37° Northeast  Level Estimated
Tue 08:13:00 AM 23.8985 114.8320 37° Northeast  Level Estimated
Tue 08:14:00 AM 23.9881 114.9056 37° Northeast  Level Estimated
Tue 08:15:00 AM 24.0778 114.9792 37° Northeast  Level Estimated
Tue 08:16:00 AM 24.1674 115.0530 37° Northeast  Level Estimated
Tue 08:17:00 AM 24.2569 115.1269 37° Northeast  Level Estimated
Tue 08:18:00 AM 24.3465 115.2009 37° Northeast  Level Estimated
Tue 08:19:00 AM 24.4360 115.2750 37° Northeast  Level Estimated
Tue 08:20:00 AM 24.5254 115.3492 37° Northeast  Level Estimated
Tue 08:21:00 AM 24.6148 115.4235 37° Northeast  Level Estimated
Tue 08:22:00 AM 24.7042 115.4979 37° Northeast  Level Estimated
Tue 08:23:00 AM 24.7936 115.5724 37° Northeast  Level Estimated
Tue 08:24:00 AM 24.8829 115.6470 37° Northeast  Level Estimated
Tue 08:25:00 AM 24.9722 115.7218 37° Northeast  Level Estimated
Tue 08:26:00 AM 25.0614 115.7966 37° Northeast  Level Estimated
Tue 08:27:00 AM 25.1506 115.8716 37° Northeast  Level Estimated
Tue 08:28:00 AM 25.2398 115.9466 37° Northeast  Level Estimated
Tue 08:29:00 AM 25.3289 116.0218 37° Northeast  Level Estimated
Tue 08:30:00 AM 25.4180 116.0971 37° Northeast  Level Estimated
Tue 08:31:00 AM 25.5070 116.1725 37° Northeast  Level Estimated
Tue 08:32:00 AM 25.5960 116.2480 37° Northeast  Level Estimated
Tue 08:33:00 AM 25.6850 116.3236 37° Northeast  Level Estimated
Tue 08:34:00 AM 25.7739 116.3993 37° Northeast  Level Estimated
Tue 08:35:00 AM 25.8628 116.4752 38° Northeast  Level Estimated
Tue 08:36:00 AM 25.9517 116.5511 38° Northeast  Level Estimated
Tue 08:37:00 AM 26.0405 116.6272 38° Northeast  Level Estimated
Tue 08:38:00 AM 26.1293 116.7034 38° Northeast  Level Estimated
Tue 08:39:00 AM 26.2180 116.7797 38° Northeast  Level Estimated
Tue 08:40:00 AM 26.3067 116.8561 38° Northeast  Level Estimated
Tue 08:41:00 AM 26.3953 116.9326 38° Northeast  Level Estimated
Tue 08:42:00 AM 26.4839 117.0093 38° Northeast  Level Estimated
Tue 08:43:00 AM 26.5725 117.0861 38° Northeast  Level Estimated
Tue 08:44:00 AM 26.6611 117.1630 38° Northeast  Level Estimated
Tue 08:45:00 AM 26.7495 117.2400 38° Northeast  Level Estimated
Tue 08:46:00 AM 26.8380 117.3171 38° Northeast  Level Estimated
Tue 08:47:00 AM 26.9264 117.3944 38° Northeast  Level Estimated
Tue 08:48:00 AM 27.0147 117.4717 38° Northeast  Level Estimated
Tue 08:49:00 AM 27.1031 117.5492 38° Northeast  Level Estimated
Tue 08:50:00 AM 27.1914 117.6268 38° Northeast  Level Estimated
Tue 08:51:00 AM 27.2796 117.7046 38° Northeast  Level Estimated
Tue 08:52:00 AM 27.3678 117.7824 38° Northeast  Level Estimated
Tue 08:53:00 AM 27.4559 117.8604 38° Northeast  Level Estimated
Tue 08:54:00 AM 27.5440 117.9386 38° Northeast  Level Estimated
Tue 08:55:00 AM 27.6321 118.0168 38° Northeast  Level Estimated
Tue 08:56:00 AM 27.7201 118.0952 38° Northeast  Level Estimated
Tue 08:57:00 AM 27.8081 118.1736 38° Northeast  Level Estimated
Tue 08:58:00 AM 27.8960 118.2523 38° Northeast  Level Estimated
Tue 08:59:00 AM 27.9839 118.3310 38° Northeast  Level Estimated
Tue 09:00:00 AM 28.0717 118.4099 38° Northeast  Level Estimated
Tue 09:01:00 AM 28.1595 118.4889 38° Northeast  Level Estimated
Tue 09:02:00 AM 28.2473 118.5680 38° Northeast  Level Estimated
Tue 09:03:00 AM 28.3350 118.6473 38° Northeast  Level Estimated
Tue 09:04:00 AM 28.4226 118.7267 39° Northeast  Level Estimated
Tue 09:05:00 AM 28.5102 118.8062 39° Northeast  Level Estimated
Tue 09:06:00 AM 28.5978 118.8858 39° Northeast  Level Estimated
Tue 09:07:00 AM 28.6853 118.9656 39° Northeast  Level Estimated
Tue 09:08:00 AM 28.7728 119.0456 39° Northeast  Level Estimated
Tue 09:09:00 AM 28.8602 119.1256 39° Northeast  Level Estimated
Tue 09:10:00 AM 28.9476 119.2058 39° Northeast  Level Estimated
Tue 09:11:00 AM 29.0349 119.2861 39° Northeast  Level Estimated
Tue 09:12:00 AM 29.1222 119.3666 39° Northeast  Level Estimated
Tue 09:13:00 AM 29.2094 119.4472 39° Northeast  Level Estimated
Tue 09:14:00 AM 29.2966 119.5279 39° Northeast  Level Estimated
Tue 09:15:00 AM 29.3837 119.6088 39° Northeast  Level Estimated
Tue 09:16:00 AM 29.4708 119.6898 39° Northeast  Level Estimated
Tue 09:17:00 AM 29.5579 119.7710 39° Northeast  Level Estimated
Tue 09:18:00 AM 29.6448 119.8523 39° Northeast  Level Estimated
Tue 09:19:00 AM 29.7318 119.9337 39° Northeast  Level Estimated
Tue 09:20:00 AM 29.8187 120.0153 39° Northeast  Level Estimated
Tue 09:21:00 AM 29.9055 120.0970 39° Northeast  Level Estimated
Tue 09:22:00 AM 29.9923 120.1788 39° Northeast  Level Estimated
Tue 09:23:00 AM 30.0790 120.2608 39° Northeast  Level Estimated
Tue 09:24:00 AM 30.1657 120.3430 39° Northeast  Level Estimated
Tue 09:25:00 AM 30.2524 120.4253 39° Northeast  Level Estimated
Tue 09:26:00 AM 30.3389 120.5077 39° Northeast  Level Estimated
Tue 09:27:00 AM 30.4255 120.5903 39° Northeast  Level Estimated
Tue 09:28:00 AM 30.5119 120.6730 39° Northeast  Level Estimated
Tue 09:28:05 AM 29.4392 121.2363 36° Northeast 410 472 22,800  Level FlightAware ADS-B
Tue 09:28:51 AM 29.4711 121.2668 55° Northeast 401 461 21,300 -1,909 Descending FlightAware ADS-B
Tue 09:29:33 AM 29.5267 121.3576 56° Northeast 394 453 20,000 -1,824 Descending FlightAware ADS-B
Tue 09:30:33 AM 29.5476 121.3928 55° Northeast 382 440 18,200 -1,691 Descending FlightAware ADS-B
Tue 09:31:23 AM 29.6447 121.5543 57° Northeast 374 430 16,900 -1,011 Descending FlightAware ADS-B
Tue 09:32:02 AM 29.6790 121.6206 60° Northeast 377 434 16,700 -150 Descending FlightAware ADS-B
Tue 09:32:43 AM 29.7127 121.6868 60° Northeast 376 433 16,700  Level FlightAware ADS-B
Tue 09:33:41 AM 29.7727 121.7859 45° Northeast 362 417 16,700  Level FlightAware ADS-B
Tue 09:34:22 AM 29.8158 121.8436 55° Northeast 338 389 16,700  Level FlightAware ADS-B
Tue 09:35:13 AM 29.8639 121.9143 36° Northeast 342 394 16,700  Level FlightAware ADS-B (ZSSL)
Tue 09:35:14 AM 29.8655 121.9157 35° Northeast 343 395 16,700  Level FlightAware ADS-B (ZSSL)
Tue 09:36:06 AM 29.9392 121.9514 North 335 386 16,700  Level FlightAware ADS-B
Tue 09:36:32 AM 29.9928 121.9543 354° North 335 386 16,700  Level FlightAware ADS-B
Tue 09:36:53 AM 30.0137 121.9502 349° North 334 384 16,700  Level FlightAware ADS-B (ZSSL)
Tue 09:37:14 AM 30.0416 121.9427 344° North 333 383 16,700  Level FlightAware ADS-B
Tue 09:37:44 AM 30.0869 121.9266 342° North 332 382 16,700 -200 Level FlightAware ADS-B
Tue 09:38:14 AM 30.1185 121.9147 342° North 331 381 16,500 -690 Descending FlightAware ADS-B
Tue 09:39:11 AM 30.2194 121.8658 331° Northwest 363 418 15,700 -911 Descending FlightAware ADS-B (ZSSL)
Tue 09:39:33 AM 30.2541 121.8486 344° North 365 420 15,300 -1,227 Descending FlightAware ADS-B (ZSSL)
Tue 09:39:55 AM 30.3004 121.8396 352° North 362 417 14,800 -1,029 Descending FlightAware ADS-B
Tue 09:40:08 AM 30.3121 121.8378 353° North 358 412 14,700 -240 Descending FlightAware ADS-B (ZSSL)
Tue 09:40:20 AM 30.3137 121.8375 353° North 353 406 14,700 -2,640 Level FlightAware ADS-B (ZSSL)
Tue 09:40:33 AM 30.3646 121.8296 352° North 357 411 13,600 -2,400 Descending FlightAware ADS-B
Tue 09:41:15 AM 30.4317 121.8149 347° North 348 400 12,500 -1,171 Descending FlightAware ADS-B
Tue 09:41:55 AM 30.4825 121.7848 328° Northwest 312 359 12,000 -638 Descending FlightAware ADS-B
Tue 09:42:02 AM 30.4865 121.7819 353° North 353 406 12,000 -353 Level FlightAware ADS-B (ZSSL)
Tue 09:42:12 AM 30.4987 121.7728 328° Northwest 305 351 11,900 -1,688 Descending FlightAware ADS-B (ZSSL)
Tue 09:42:34 AM 30.5318 121.7481 326° Northwest 302 348 11,100 -1,548 Descending FlightAware ADS-B
Tue 09:42:43 AM 30.5335 121.7465 322° Northwest 301 346 11,100 -857 Level FlightAware ADS-B (ZSSL)
Tue 09:42:48 AM 30.5393 121.7398 312° West 298 343 10,900 -3,000 Descending FlightAware ADS-B (ZSSL)
Tue 09:42:53 AM 30.5482 121.7258 302° West 295 339 10,600 -1,440 Descending FlightAware ADS-B
Tue 09:43:13 AM 30.5565 121.7059 292° West 290 334 10,300 -1,304 Descending FlightAware ADS-B (ZSSL)
Tue 09:43:16 AM 30.5601 121.6928 287° West 288 331 10,100 -2,000 Descending FlightAware ADS-B
Tue 09:43:34 AM 30.5637 121.6781 283° West 287 330 9,600 -772 Descending FlightAware ADS-B
Tue 09:44:57 AM 30.5879 121.5521 303° West 282 325 8,800 -472 Descending FlightAware ADS-B (ZSSL)
Tue 09:45:03 AM 30.5927 121.5447 311° West 277 319 8,900 600 Climbing FlightAware ADS-B (ZSSL)
Tue 09:45:07 AM 30.5989 121.5373 317° Northwest 267 307 8,900  Level FlightAware ADS-B
Tue 09:45:23 AM 30.6099 121.5257 319° Northwest 259 298 8,900  Level FlightAware ADS-B (ZSSL)
Tue 09:45:26 AM 30.6193 121.5170 322° Northwest 250 288 8,900  Level FlightAware ADS-B
Tue 09:45:38 AM 30.6243 121.5126 324° Northwest 245 282 8,900  Level FlightAware ADS-B (ZSSL)
Tue 09:45:46 AM 30.6366 121.5021 324° Northwest 239 275 8,900  Level FlightAware ADS-B
Tue 09:45:59 AM 30.6427 121.4970 324° Northwest 237 273 8,900 -286 Level FlightAware ADS-B (ZSSL)
Tue 09:46:07 AM 30.6534 121.4880 324° Northwest 237 273 8,800 -316 Descending FlightAware ADS-B
Tue 09:46:18 AM 30.6586 121.4836 324° Northwest 236 272 8,800 -947 Level FlightAware ADS-B (ZSSL)
Tue 09:46:26 AM 30.6719 121.4722 323° Northwest 236 272 8,500 -1,304 Descending FlightAware ADS-B
Tue 09:46:41 AM 30.6811 121.4642 323° Northwest 237 273 8,300 -909 Descending FlightAware ADS-B
Tue 09:46:59 AM 30.6945 121.4524 323° Northwest 235 270 8,000 -1,200 Descending FlightAware ADS-B (ZSSL)
Tue 09:47:01 AM 30.6966 121.4506 323° Northwest 236 272 7,900 -429 Descending FlightAware ADS-B
Tue 09:47:13 AM 30.7079 121.4407 323° Northwest 229 264 7,900 -316 Level FlightAware ADS-B (ZSSL)
Tue 09:47:20 AM 30.7139 121.4355 323° Northwest 230 265 7,800 -800 Descending FlightAware ADS-B
Tue 09:47:28 AM 30.7208 121.4294 323° Northwest 229 264 7,700 -857 Descending FlightAware ADS-B (ZSSL)
Tue 09:47:41 AM 30.7301 121.4212 323° Northwest 228 262 7,500 -750 Descending FlightAware ADS-B
Tue 09:47:44 AM 30.7295 121.4217 323° Northwest 228 262 7,500 -1,200 Level FlightAware ADS-B (ZSSL)
Tue 09:48:01 AM 30.7478 121.4055 322° Northwest 230 265 7,100 -1,385 Descending FlightAware ADS-B
Tue 09:48:23 AM 30.7664 121.3880 320° Northwest 234 269 6,600 -1,313 Descending FlightAware ADS-B (ZSSL)
Tue 09:48:33 AM 30.7750 121.3798 327° Northwest 234 269 6,400 -1,412 Descending FlightAware ADS-B (ZSSL)
Tue 09:48:40 AM 30.7836 121.3750 337° Northwest 234 269 6,200 -1,200 Descending FlightAware ADS-B
Tue 09:48:43 AM 30.7852 121.3742 339° North 233 268 6,200 -857 Level FlightAware ADS-B (ZSSL)
Tue 09:48:47 AM 30.7960 121.3704 344° North 228 262 6,100 -706 Descending FlightAware ADS-B
Tue 09:49:00 AM 30.8035 121.3665 333° Northwest 226 260 6,000 -947 Descending FlightAware ADS-B
Tue 09:49:06 AM 30.8139 121.3613 340° North 224 258 5,800 -1,111 Descending FlightAware ADS-B
Tue 09:49:27 AM 30.8330 121.3562 353° North 220 253 5,500 -878 Descending FlightAware ADS-B
Tue 09:49:47 AM 30.8533 121.3547 358° North 218 251 5,200 -923 Descending FlightAware ADS-B
Tue 09:50:06 AM 30.8737 121.3539 358° North 222 255 4,900 -706 Descending FlightAware ADS-B
Tue 09:50:21 AM 30.8839 121.3534 357° North 226 260 4,800 -686 Descending FlightAware ADS-B
Tue 09:50:41 AM 30.9069 121.3521 357° North 238 274 4,500 -769 Descending FlightAware ADS-B
Tue 09:51:00 AM 30.9275 121.3509 357° North 232 267 4,300 -789 Descending FlightAware ADS-B
Tue 09:51:19 AM 30.9468 121.3499 357° North 226 260 4,000 -913 Descending FlightAware ADS-B
Tue 09:51:46 AM 30.9816 121.3479 358° North 229 264 3,600 -714 Descending FlightAware ADS-B
Tue 09:52:01 AM 30.9907 121.3475 357° North 229 264 3,500 -571 Descending FlightAware ADS-B
Tue 09:52:07 AM 30.9968 121.3472 346° North 222 255 3,400 -1,263 Descending FlightAware ADS-B (ZSSL)
Tue 09:52:20 AM 31.0118 121.3464 357° North 227 261 3,100 -1,161 Descending FlightAware ADS-B
Tue 09:52:38 AM 31.0293 121.3454 358° North 227 261 2,800 -947 Descending FlightAware ADS-B (ZSSL)
Tue 09:52:39 AM 31.0324 121.3452 357° North 225 259 2,800 -1,091 Level FlightAware ADS-B
Tue 09:53:00 AM 31.0516 121.3442 358° North 208 239 2,400 -1,024 Descending FlightAware ADS-B
Tue 09:53:20 AM 31.0713 121.3431 357° North 193 222 2,100 -900 Descending FlightAware ADS-B
Tue 09:53:40 AM 31.0883 121.3423 357° North 177 204 1,800 -878 Descending FlightAware ADS-B
Tue 09:54:01 AM 31.1050 121.3414 357° North 159 183 1,500 -1,021 Descending FlightAware ADS-B
Tue 09:54:27 AM 31.1266 121.3402 357° North 144 166 1,000 -818 Descending FlightAware ADS-B
Tue 09:55:07 AM 31.1525 121.3387 357° North 144 166 600 -720 Descending FlightAware ADS-B
Tue 09:55:42 AM 31.1761 121.3375 357° North 144 166 100 -857 Descending FlightAware ADS-B

Login

Don't have an account? Register now (free) for customized features, flight alerts, and more!